Time;durP1;ratioP1;P1;durP2;ratioP2;P2;SDS_P1;SDS_P2;PMS_P1;PMS_P2;Temp;Humidity;BMP_temperature;BMP_pressure;BME280_temperature;BME280_humidity;BME280_pressure;Samples;Min_cycle;Max_cycle;Signal;HPM_P1;HPM_P2
2022/09/25 00:01:34;;;;;;;19.80;8.90;;;;;;;;;;4970138;28;20531;-67
2022/09/25 00:04:00;;;;;;;19.13;9.68;;;;;;;;;;4988097;28;20423;-68
2022/09/25 00:06:27;;;;;;;20.20;9.88;;;;;;;;;;4989611;28;20478;-67
2022/09/25 00:08:53;;;;;;;18.42;9.93;;;;;;;;;;4987104;28;20021;-67
2022/09/25 00:11:23;;;;;;;20.25;10.40;;;;;;;;;;4989782;28;20313;-67
2022/09/25 00:13:49;;;;;;;21.55;11.05;;;;;;;;;;4988339;28;20366;-68
2022/09/25 00:16:21;;;;;;;15.10;9.18;;;;;;;;;;4986798;28;20313;-67
2022/09/25 00:21:32;;;;;;;20.02;9.70;;;;;;;;;;4987917;28;20359;-67
2022/09/25 00:24:02;;;;;;;17.58;8.82;;;;;;;;;;4987798;28;20454;-67
2022/09/25 00:26:28;;;;;;;19.10;9.45;;;;;;;;;;4986429;28;20435;-67
2022/09/25 00:28:54;;;;;;;20.38;9.30;;;;;;;;;;4987675;28;20451;-68
2022/09/25 00:31:24;;;;;;;16.38;8.68;;;;;;;;;;4988240;28;20447;-67
2022/09/25 00:33:51;;;;;;;17.17;9.60;;;;;;;;;;4986318;28;20431;-67
2022/09/25 00:36:16;;;;;;;20.90;9.25;;;;;;;;;;4986436;28;20032;-67
2022/09/25 00:38:42;;;;;;;18.63;8.70;;;;;;;;;;4985409;28;20118;-68
2022/09/25 00:41:08;;;;;;;16.17;8.50;;;;;;;;;;4987572;28;20448;-67
2022/09/25 00:43:43;;;;;;;16.48;8.45;;;;;;;;;;4988106;28;20459;-67
2022/09/25 00:46:29;;;;;;;15.10;8.27;;;;;;;;;;4986426;28;20033;-67
2022/09/25 00:49:04;;;;;;;17.65;7.95;;;;;;;;;;4987573;28;20335;-67
2022/09/25 00:51:43;;;;;;;16.50;8.35;;;;;;;;;;4986239;28;20389;-67
2022/09/25 00:54:15;;;;;;;19.33;7.97;;;;;;;;;;4988176;28;20390;-67
2022/09/25 00:56:42;;;;;;;14.02;6.80;;;;;;;;;;4990529;28;20436;-67
2022/09/25 00:59:16;;;;;;;14.98;8.45;;;;;;;;;;4989880;28;20362;-67
2022/09/25 01:01:41;;;;;;;15.23;8.25;;;;;;;;;;4970024;28;20318;-67
2022/09/25 01:04:07;;;;;;;15.63;7.97;;;;;;;;;;4978738;28;20395;-67
2022/09/25 01:06:34;;;;;;;15.02;7.78;;;;;;;;;;4970868;28;20421;-67
2022/09/25 01:08:59;;;;;;;15.93;8.75;;;;;;;;;;4970268;28;20440;-67
2022/09/25 01:11:25;;;;;;;17.58;8.02;;;;;;;;;;4969910;28;20442;-68
2022/09/25 01:13:56;;;;;;;14.77;8.23;;;;;;;;;;4971585;28;20075;-68
2022/09/25 01:16:27;;;;;;;15.55;7.85;;;;;;;;;;4970212;28;20421;-68
2022/09/25 01:19:09;;;;;;;14.50;7.60;;;;;;;;;;4972757;28;20432;-68
2022/09/25 01:21:43;;;;;;;15.23;7.90;;;;;;;;;;4970931;28;20399;-68
2022/09/25 01:24:29;;;;;;;13.55;8.00;;;;;;;;;;4969791;28;20448;-67
2022/09/25 01:27:16;;;;;;;12.68;6.88;;;;;;;;;;4953286;28;20057;-67
2022/09/25 01:29:50;;;;;;;13.52;7.60;;;;;;;;;;4971615;28;20397;-68
2022/09/25 01:32:21;;;;;;;15.57;8.05;;;;;;;;;;4970520;28;20340;-67
2022/09/25 01:35:05;;;;;;;13.70;7.97;;;;;;;;;;4969751;28;20059;-67
2022/09/25 01:37:54;;;;;;;16.58;7.47;;;;;;;;;;4970634;28;20146;-68
2022/09/25 01:40:26;;;;;;;14.13;7.28;;;;;;;;;;4963693;28;20472;-67
2022/09/25 01:42:56;;;;;;;11.73;6.07;;;;;;;;;;4970169;28;20029;-67
2022/09/25 01:45:41;;;;;;;13.02;6.78;;;;;;;;;;4969808;28;20486;-67
2022/09/25 01:48:08;;;;;;;13.95;6.80;;;;;;;;;;4970872;28;20452;-67
2022/09/25 01:50:40;;;;;;;14.10;7.63;;;;;;;;;;4969780;28;20456;-67
2022/09/25 01:53:11;;;;;;;12.82;7.22;;;;;;;;;;4969331;28;20490;-68
2022/09/25 01:55:40;;;;;;;10.43;6.50;;;;;;;;;;4969633;28;20318;-67
2022/09/25 01:58:21;;;;;;;10.88;6.97;;;;;;;;;;4969045;28;20440;-67
2022/09/25 02:00:53;;;;;;;10.80;6.40;;;;;;;;;;4953938;28;20025;-67
2022/09/25 02:03:42;;;;;;;12.50;6.20;;;;;;;;;;4969167;28;20501;-68
2022/09/25 02:06:11;;;;;;;15.23;7.72;;;;;;;;;;4968365;28;20381;-67
2022/09/25 02:09:00;;;;;;;11.75;7.07;;;;;;;;;;4970245;28;20375;-68
2022/09/25 02:11:30;;;;;;;14.57;7.05;;;;;;;;;;4959563;28;20409;-67
2022/09/25 02:14:00;;;;;;;12.38;6.93;;;;;;;;;;4970431;28;20383;-68
2022/09/25 02:16:38;;;;;;;13.15;7.38;;;;;;;;;;4970350;28;20433;-68
2022/09/25 02:22:05;;;;;;;16.50;6.75;;;;;;;;;;4969015;28;20403;-68
2022/09/25 02:24:49;;;;;;;11.38;6.28;;;;;;;;;;4970665;28;20484;-67
2022/09/25 02:27:19;;;;;;;11.85;6.50;;;;;;;;;;4970207;28;20452;-67
2022/09/25 02:29:44;;;;;;;13.48;6.82;;;;;;;;;;4968544;28;20113;-67
2022/09/25 02:32:12;;;;;;;11.40;6.40;;;;;;;;;;4973150;28;20432;-67
2022/09/25 02:34:38;;;;;;;9.68;6.43;;;;;;;;;;4968661;28;20441;-67
2022/09/25 02:37:12;;;;;;;12.90;6.88;;;;;;;;;;4968182;28;20408;-67
2022/09/25 02:39:38;;;;;;;11.57;6.07;;;;;;;;;;4968631;28;20517;-67
2022/09/25 02:42:22;;;;;;;15.38;5.63;;;;;;;;;;4970259;28;20436;-68
2022/09/25 02:45:06;;;;;;;12.15;5.93;;;;;;;;;;4970500;28;20037;-67
2022/09/25 02:47:39;;;;;;;11.50;6.97;;;;;;;;;;4969659;28;20321;-67
2022/09/25 02:50:09;;;;;;;10.90;5.60;;;;;;;;;;4970020;28;20038;-67
2022/09/25 02:53:05;;;;;;;13.80;6.10;;;;;;;;;;4968296;28;20022;-67
2022/09/25 02:55:49;;;;;;;11.70;5.45;;;;;;;;;;4970076;28;20132;-67
2022/09/25 02:58:25;;;;;;;10.20;5.30;;;;;;;;;;4968014;28;20033;-67
2022/09/25 03:00:52;;;;;;;11.75;6.03;;;;;;;;;;4969491;28;20396;-67
2022/09/25 03:03:18;;;;;;;11.38;6.28;;;;;;;;;;4968064;28;20459;-67
2022/09/25 03:05:45;;;;;;;13.45;5.85;;;;;;;;;;4951572;28;20382;-67
2022/09/25 03:10:56;;;;;;;10.13;6.03;;;;;;;;;;4968206;28;20533;-67
2022/09/25 03:13:30;;;;;;;8.48;5.38;;;;;;;;;;4967852;28;20458;-67
2022/09/25 03:15:58;;;;;;;9.13;6.03;;;;;;;;;;4969252;28;20026;-67
2022/09/25 03:18:24;;;;;;;9.25;5.57;;;;;;;;;;4966667;28;20471;-67
2022/09/25 03:20:50;;;;;;;8.55;5.65;;;;;;;;;;4967645;28;20348;-67
2022/09/25 03:23:16;;;;;;;10.65;5.72;;;;;;;;;;4969289;28;20343;-67
2022/09/25 03:25:41;;;;;;;10.63;5.45;;;;;;;;;;4969182;28;20115;-68
2022/09/25 03:28:10;;;;;;;8.18;4.65;;;;;;;;;;4969090;28;20325;-68
2022/09/25 03:30:40;;;;;;;14.10;6.47;;;;;;;;;;4967744;28;20356;-67
2022/09/25 03:33:05;;;;;;;;;;;;;;;;;;4969397;28;20341;-67
2022/09/25 03:35:31;;;;;;;10.23;5.45;;;;;;;;;;4971287;28;20196;-67
2022/09/25 03:37:57;;;;;;;9.50;4.75;;;;;;;;;;4968750;28;20464;-67
2022/09/25 03:40:22;;;;;;;11.32;5.63;;;;;;;;;;4960886;28;20423;-67
2022/09/25 03:42:47;;;;;;;10.95;5.07;;;;;;;;;;4971756;28;20436;-67
2022/09/25 03:45:13;;;;;;;9.45;5.10;;;;;;;;;;4967424;28;20534;-68
2022/09/25 03:47:38;;;;;;;8.00;4.95;;;;;;;;;;4967410;28;20463;-67
2022/09/25 03:50:04;;;;;;;10.75;4.85;;;;;;;;;;4968665;28;20518;-68
2022/09/25 03:52:29;;;;;;;8.27;4.93;;;;;;;;;;4966966;28;20512;-68
2022/09/25 03:54:54;;;;;;;10.65;5.65;;;;;;;;;;4968961;28;20337;-67
2022/09/25 03:57:20;;;;;;;8.70;4.78;;;;;;;;;;4968520;28;20351;-68
2022/09/25 03:59:45;;;;;;;9.38;5.13;;;;;;;;;;4968410;28;20433;-68
2022/09/25 04:02:11;;;;;;;10.10;5.70;;;;;;;;;;4968587;28;20404;-67
2022/09/25 04:04:36;;;;;;;8.50;5.68;;;;;;;;;;4968483;28;20543;-67
2022/09/25 04:07:02;;;;;;;9.93;5.13;;;;;;;;;;4968407;28;20490;-67
2022/09/25 04:09:27;;;;;;;8.57;4.60;;;;;;;;;;4968545;28;20427;-67
2022/09/25 04:11:54;;;;;;;12.00;4.75;;;;;;;;;;4967288;28;20373;-67
2022/09/25 04:14:20;;;;;;;8.85;5.25;;;;;;;;;;4968328;28;20395;-67
2022/09/25 04:16:45;;;;;;;10.57;4.80;;;;;;;;;;4968214;28;20083;-67
2022/09/25 04:19:11;;;;;;;9.15;4.60;;;;;;;;;;4968233;28;20417;-67
2022/09/25 04:21:36;;;;;;;10.68;4.57;;;;;;;;;;4968047;28;20429;-67
2022/09/25 04:26:46;;;;;;;7.50;4.25;;;;;;;;;;4969943;28;20052;-67
2022/09/25 04:29:14;;;;;;;10.43;4.97;;;;;;;;;;4967902;28;20041;-67
2022/09/25 04:31:39;;;;;;;6.18;3.92;;;;;;;;;;4966599;28;20428;-67
2022/09/25 04:34:04;;;;;;;7.30;4.00;;;;;;;;;;4966620;28;20440;-68
2022/09/25 04:36:30;;;;;;;8.05;4.63;;;;;;;;;;4966048;28;20479;-67
2022/09/25 04:38:57;;;;;;;6.65;4.68;;;;;;;;;;4967865;28;20367;-68
2022/09/25 04:41:22;;;;;;;6.38;4.05;;;;;;;;;;4967811;28;20349;-67
2022/09/25 04:43:47;;;;;;;7.82;4.72;;;;;;;;;;4966169;28;20490;-67
2022/09/25 04:46:14;;;;;;;9.18;4.97;;;;;;;;;;4966344;28;20448;-67
2022/09/25 04:48:42;;;;;;;7.40;4.63;;;;;;;;;;4966241;28;20425;-67
2022/09/25 04:51:08;;;;;;;7.95;4.95;;;;;;;;;;4967950;28;20375;-67
2022/09/25 04:53:34;;;;;;;10.10;4.47;;;;;;;;;;4968001;28;20112;-67
2022/09/25 04:56:07;;;;;;;8.38;4.32;;;;;;;;;;4967775;28;20508;-68
2022/09/25 04:58:33;;;;;;;6.65;4.30;;;;;;;;;;4966216;28;20051;-68
2022/09/25 05:01:07;;;;;;;7.55;4.47;;;;;;;;;;4966501;28;20428;-67
2022/09/25 05:03:33;;;;;;;7.65;4.75;;;;;;;;;;4967814;28;20451;-67
2022/09/25 05:05:58;;;;;;;8.45;4.35;;;;;;;;;;4967612;28;20448;-67
2022/09/25 05:08:24;;;;;;;10.30;4.72;;;;;;;;;;4967698;28;20099;-68
2022/09/25 05:10:49;;;;;;;8.45;4.28;;;;;;;;;;4967690;28;20313;-67
2022/09/25 05:13:14;;;;;;;7.68;4.35;;;;;;;;;;4966167;28;20029;-67
2022/09/25 05:15:40;;;;;;;7.10;4.25;;;;;;;;;;4967738;28;20520;-67
2022/09/25 05:18:12;;;;;;;8.43;4.15;;;;;;;;;;4967823;28;20500;-67
2022/09/25 05:20:37;;;;;;;7.28;4.63;;;;;;;;;;4966175;28;20344;-67
2022/09/25 05:23:03;;;;;;;7.32;4.32;;;;;;;;;;4969349;28;20336;-67
2022/09/25 05:25:29;;;;;;;9.52;4.50;;;;;;;;;;4966038;28;20398;-67
2022/09/25 05:27:57;;;;;;;7.45;4.22;;;;;;;;;;4966169;28;20452;-67
2022/09/25 05:30:23;;;;;;;9.10;4.93;;;;;;;;;;4967435;28;20341;-67
2022/09/25 05:32:50;;;;;;;7.68;4.50;;;;;;;;;;4967434;28;20038;-70
2022/09/25 05:35:20;;;;;;;6.90;4.35;;;;;;;;;;4966352;28;20410;-67
2022/09/25 05:37:45;;;;;;;6.75;4.57;;;;;;;;;;4965535;28;20045;-68
2022/09/25 05:40:11;;;;;;;6.60;4.30;;;;;;;;;;4967993;28;20441;-67
2022/09/25 05:42:37;;;;;;;9.43;4.40;;;;;;;;;;4969689;28;20128;-67
2022/09/25 05:45:02;;;;;;;9.18;4.53;;;;;;;;;;4970904;28;20444;-67
2022/09/25 05:47:27;;;;;;;9.57;4.57;;;;;;;;;;4971429;28;20033;-67
2022/09/25 05:49:53;;;;;;;8.00;4.30;;;;;;;;;;4969791;28;20432;-67
2022/09/25 05:52:18;;;;;;;8.55;4.55;;;;;;;;;;4969418;28;20341;-68
2022/09/25 05:54:43;;;;;;;7.18;3.78;;;;;;;;;;4969312;28;20459;-67
2022/09/25 05:57:09;;;;;;;7.63;3.83;;;;;;;;;;4969215;28;20463;-67
2022/09/25 05:59:34;;;;;;;7.65;3.90;;;;;;;;;;4970631;28;20440;-67
2022/09/25 06:01:59;;;;;;;9.38;4.35;;;;;;;;;;4969482;28;20535;-67
2022/09/25 06:04:26;;;;;;;8.93;4.35;;;;;;;;;;4970515;28;20387;-67
2022/09/25 06:06:51;;;;;;;6.60;3.75;;;;;;;;;;4971822;28;20052;-68
2022/09/25 06:09:17;;;;;;;10.75;4.55;;;;;;;;;;4971704;28;20021;-67
2022/09/25 06:11:46;;;;;;;7.10;4.00;;;;;;;;;;4970491;28;20395;-67
2022/09/25 06:14:12;;;;;;;5.97;4.03;;;;;;;;;;4970424;28;20503;-67
2022/09/25 06:16:38;;;;;;;7.50;4.63;;;;;;;;;;4971810;28;20052;-67
2022/09/25 06:19:03;;;;;;;7.50;4.72;;;;;;;;;;4970350;28;20471;-67
2022/09/25 06:21:29;;;;;;;6.05;3.75;;;;;;;;;;4970488;28;20451;-67
2022/09/25 06:23:54;;;;;;;5.68;3.80;;;;;;;;;;4968648;28;20026;-67
2022/09/25 06:26:20;;;;;;;7.57;3.67;;;;;;;;;;4970363;28;20493;-67
2022/09/25 06:28:45;;;;;;;6.80;4.13;;;;;;;;;;4970172;28;20341;-67
2022/09/25 06:31:10;;;;;;;7.18;3.47;;;;;;;;;;4970268;28;20425;-67
2022/09/25 06:33:36;;;;;;;6.35;3.33;;;;;;;;;;4970513;28;20389;-67
2022/09/25 06:36:04;;;;;;;6.57;3.70;;;;;;;;;;4970110;28;20387;-67
2022/09/25 06:38:32;;;;;;;7.15;4.07;;;;;;;;;;4969298;28;20571;-68
2022/09/25 06:40:57;;;;;;;6.22;3.55;;;;;;;;;;4969942;28;20550;-67
2022/09/25 06:43:23;;;;;;;7.93;3.85;;;;;;;;;;4968718;28;20422;-67
2022/09/25 06:45:49;;;;;;;5.78;3.63;;;;;;;;;;4970563;28;20029;-68
2022/09/25 06:48:16;;;;;;;5.90;3.78;;;;;;;;;;4968403;28;20033;-67
2022/09/25 06:50:43;;;;;;;6.38;3.80;;;;;;;;;;4969722;28;20516;-67
2022/09/25 06:53:10;;;;;;;10.45;4.22;;;;;;;;;;4969598;28;20460;-67
2022/09/25 06:55:36;;;;;;;7.72;3.40;;;;;;;;;;4968540;28;20383;-67
2022/09/25 06:58:06;;;;;;;6.28;4.07;;;;;;;;;;4969476;28;20106;-67
2022/09/25 07:00:32;;;;;;;5.93;3.83;;;;;;;;;;4969443;28;20490;-67
2022/09/25 07:05:43;;;;;;;6.82;3.88;;;;;;;;;;4969522;28;20052;-67
2022/09/25 07:08:13;;;;;;;7.10;4.10;;;;;;;;;;4969312;28;20514;-67
2022/09/25 07:10:38;;;;;;;7.72;4.05;;;;;;;;;;4968151;28;20080;-67
2022/09/25 07:13:04;;;;;;;9.43;5.25;;;;;;;;;;4968645;28;20128;-67
2022/09/25 07:15:30;;;;;;;10.07;4.40;;;;;;;;;;4969779;28;20411;-68
2022/09/25 07:17:55;;;;;;;6.32;3.85;;;;;;;;;;4967891;28;20479;-67
2022/09/25 07:20:21;;;;;;;7.25;4.07;;;;;;;;;;4969377;28;20408;-67
2022/09/25 07:22:47;;;;;;;6.30;3.80;;;;;;;;;;4969281;28;20052;-67
2022/09/25 07:25:12;;;;;;;6.82;4.05;;;;;;;;;;4967750;28;20433;-67
2022/09/25 07:27:38;;;;;;;6.75;4.32;;;;;;;;;;4969294;28;20539;-67
2022/09/25 07:30:04;;;;;;;6.10;3.63;;;;;;;;;;4967656;28;20101;-67
2022/09/25 07:32:30;;;;;;;11.07;4.05;;;;;;;;;;4967163;28;20026;-67
2022/09/25 07:34:57;;;;;;;7.85;3.90;;;;;;;;;;4969616;28;20485;-67
2022/09/25 07:37:23;;;;;;;6.35;3.92;;;;;;;;;;4968460;28;20368;-67
2022/09/25 07:39:48;;;;;;;5.28;3.72;;;;;;;;;;4967840;28;20043;-67
2022/09/25 07:42:13;;;;;;;11.77;4.43;;;;;;;;;;4971018;28;20450;-67
2022/09/25 07:44:39;;;;;;;11.18;4.28;;;;;;;;;;4625853;28;10001184;-67
2022/09/25 07:47:05;;;;;;;7.57;4.18;;;;;;;;;;4968856;28;20407;-68
2022/09/25 07:49:31;;;;;;;5.32;3.60;;;;;;;;;;4967538;28;20450;-68
2022/09/25 07:51:56;;;;;;;7.82;4.45;;;;;;;;;;4968016;28;20421;-67
2022/09/25 07:54:23;;;;;;;7.32;4.03;;;;;;;;;;4968342;28;20363;-68
2022/09/25 07:56:49;;;;;;;8.07;3.55;;;;;;;;;;4966886;28;20455;-67
2022/09/25 07:59:14;;;;;;;6.03;3.83;;;;;;;;;;4970436;28;20309;-67
2022/09/25 08:01:39;;;;;;;5.50;3.70;;;;;;;;;;4968247;28;20121;-68
2022/09/25 08:04:05;;;;;;;7.90;4.10;;;;;;;;;;4967637;28;20519;-68
2022/09/25 08:06:33;;;;;;;9.57;5.35;;;;;;;;;;4969728;28;20416;-68
2022/09/25 08:08:58;;;;;;;7.13;4.57;;;;;;;;;;4968280;28;20395;-68
2022/09/25 08:11:24;;;;;;;7.57;5.00;;;;;;;;;;4967143;28;20029;-67
2022/09/25 08:13:49;;;;;;;6.28;4.05;;;;;;;;;;4968501;28;20423;-67
2022/09/25 08:16:16;;;;;;;5.25;3.75;;;;;;;;;;4966680;28;20396;-67
2022/09/25 08:18:46;;;;;;;7.47;3.60;;;;;;;;;;4968133;28;20029;-68
2022/09/25 08:21:15;;;;;;;6.88;3.88;;;;;;;;;;4968016;28;20486;-67
2022/09/25 08:23:41;;;;;;;5.75;3.63;;;;;;;;;;4966651;28;20348;-68
2022/09/25 08:26:07;;;;;;;9.25;3.80;;;;;;;;;;4966919;28;20340;-68
2022/09/25 08:28:33;;;;;;;8.65;3.85;;;;;;;;;;4968040;28;20097;-68
2022/09/25 08:31:00;;;;;;;9.27;3.88;;;;;;;;;;4966522;28;20349;-67
2022/09/25 08:33:26;;;;;;;7.65;3.97;;;;;;;;;;4966680;28;20088;-67
2022/09/25 08:36:01;;;;;;;6.72;3.53;;;;;;;;;;4967847;28;20048;-68
2022/09/25 08:38:27;;;;;;;5.03;3.25;;;;;;;;;;4967516;28;20540;-68
2022/09/25 08:41:24;;;;;;;12.13;4.03;;;;;;;;;;4968171;28;20321;-68
2022/09/25 08:43:52;;;;;;;7.65;3.80;;;;;;;;;;4959549;28;20376;-68
2022/09/25 08:49:11;;;;;;;9.52;3.72;;;;;;;;;;4966476;28;20056;-67
2022/09/25 08:51:43;;;;;;;6.75;4.00;;;;;;;;;;4967946;28;20452;-68
2022/09/25 08:54:30;;;;;;;7.78;4.30;;;;;;;;;;4966170;28;20432;-68
2022/09/25 08:57:20;;;;;;;11.02;5.82;;;;;;;;;;4969107;28;20432;-68
2022/09/25 08:59:50;;;;;;;27.25;10.95;;;;;;;;;;4966454;28;20558;-68
2022/09/25 09:02:19;;;;;;;17.17;8.35;;;;;;;;;;4968710;28;20435;-68
2022/09/25 09:04:56;;;;;;;11.57;6.63;;;;;;;;;;4968219;28;20512;-67
2022/09/25 09:07:25;;;;;;;13.82;6.05;;;;;;;;;;4967750;28;20428;-68
2022/09/25 09:09:59;;;;;;;11.13;5.43;;;;;;;;;;4967747;28;20402;-68
2022/09/25 09:12:33;;;;;;;11.60;5.72;;;;;;;;;;4950213;28;20398;-68
2022/09/25 09:15:11;;;;;;;11.48;5.60;;;;;;;;;;4968755;28;20436;-68
2022/09/25 09:17:40;;;;;;;15.27;5.85;;;;;;;;;;4970345;28;20494;-68
2022/09/25 09:20:15;;;;;;;13.15;5.65;;;;;;;;;;4970079;28;20482;-68
2022/09/25 09:22:45;;;;;;;10.95;5.93;;;;;;;;;;4969869;28;20356;-67
2022/09/25 09:25:36;;;;;;;12.40;5.78;;;;;;;;;;4969968;28;20029;-68
2022/09/25 09:28:19;;;;;;;10.55;5.90;;;;;;;;;;4971290;28;20041;-68
2022/09/25 09:31:07;;;;;;;10.68;5.30;;;;;;;;;;4969573;28;20442;-68
2022/09/25 09:33:42;;;;;;;9.02;5.32;;;;;;;;;;4971272;28;20442;-68
2022/09/25 09:36:27;;;;;;;9.70;4.20;;;;;;;;;;4969542;28;20468;-68
2022/09/25 09:39:01;;;;;;;10.30;5.30;;;;;;;;;;4970548;28;20525;-68
2022/09/25 09:42:16;;;;;;;10.23;5.80;;;;;;;;;;4971079;28;20030;-68
2022/09/25 09:45:11;;;;;;;10.00;5.35;;;;;;;;;;4910294;28;20194;-68
2022/09/25 09:48:11;;;;;;;6.53;4.00;;;;;;;;;;4968370;28;20365;-68
2022/09/25 09:50:37;;;;;;;13.40;7.45;;;;;;;;;;4963470;28;20041;-68
2022/09/25 09:53:12;;;;;;;9.98;5.38;;;;;;;;;;4970837;28;20103;-68
2022/09/25 09:55:41;;;;;;;10.68;5.35;;;;;;;;;;4970268;28;20440;-68
2022/09/25 09:58:12;;;;;;;;;;;;;;;;;;4969488;28;20467;-68
2022/09/25 10:00:38;;;;;;;10.45;5.03;;;;;;;;;;4971678;28;20220;-68
2022/09/25 10:03:11;;;;;;;13.50;6.75;;;;;;;;;;4970685;28;20348;-68
2022/09/25 10:05:41;;;;;;;12.43;6.75;;;;;;;;;;4970648;28;20420;-68
2022/09/25 10:08:08;;;;;;;10.75;5.55;;;;;;;;;;4972145;28;20435;-69
2022/09/25 10:10:36;;;;;;;11.38;5.65;;;;;;;;;;4969202;28;20371;-68
2022/09/25 10:13:05;;;;;;;11.10;5.87;;;;;;;;;;4969035;28;20471;-68
2022/09/25 10:15:37;;;;;;;;;;;;;;;;;;4971747;28;20424;-68
2022/09/25 10:18:02;;;;;;;9.40;5.85;;;;;;;;;;4970337;28;20335;-68
2022/09/25 10:20:56;;;;;;;11.75;6.20;;;;;;;;;;4969429;28;20463;-68
2022/09/25 10:23:37;;;;;;;11.27;6.97;;;;;;;;;;4918572;28;20376;-68
2022/09/25 10:26:05;;;;;;;12.50;6.28;;;;;;;;;;4968171;28;20482;-68
2022/09/25 10:28:34;;;;;;;10.80;6.03;;;;;;;;;;4969063;28;20479;-68
2022/09/25 10:31:01;;;;;;;16.35;7.30;;;;;;;;;;4969864;28;20344;-68
2022/09/25 10:33:29;;;;;;;12.07;7.07;;;;;;;;;;4970757;28;20098;-68
2022/09/25 10:35:55;;;;;;;18.33;9.65;;;;;;;;;;4968866;28;20378;-68
2022/09/25 10:38:20;;;;;;;7.03;4.18;;;;;;;;;;4967807;28;20418;-68
2022/09/25 10:40:56;;;;;;;16.83;7.28;;;;;;;;;;4968325;28;20057;-68
2022/09/25 10:43:23;;;;;;;12.57;6.43;;;;;;;;;;4968695;28;20463;-68
2022/09/25 10:45:52;;;;;;;9.73;4.78;;;;;;;;;;4968320;28;20375;-68
2022/09/25 10:51:20;;;;;;;12.43;6.72;;;;;;;;;;4968414;28;20360;-68
2022/09/25 10:53:49;;;;;;;9.05;5.35;;;;;;;;;;4969476;28;20384;-68
2022/09/25 10:56:21;;;;;;;11.63;6.63;;;;;;;;;;4969054;28;20360;-68
2022/09/25 10:58:53;;;;;;;11.52;6.53;;;;;;;;;;4967907;28;20491;-68
2022/09/25 11:01:20;;;;;;;11.88;7.35;;;;;;;;;;4970287;28;20434;-68
2022/09/25 11:03:46;;;;;;;9.65;6.03;;;;;;;;;;4968020;28;20507;-68
2022/09/25 11:06:22;;;;;;;10.77;5.72;;;;;;;;;;4969636;28;20080;-68
2022/09/25 11:09:11;;;;;;;13.18;6.70;;;;;;;;;;4969386;28;20420;-68
2022/09/25 11:11:38;;;;;;;;;;;;;;;;;;4970034;28;20395;-67
2022/09/25 11:14:04;;;;;;;6.07;4.43;;;;;;;;;;4967750;28;20291;-68
2022/09/25 11:16:46;;;;;;;9.25;4.80;;;;;;;;;;4967731;28;20419;-68
2022/09/25 11:19:24;;;;;;;7.63;4.53;;;;;;;;;;4969191;28;20113;-69
2022/09/25 11:21:58;;;;;;;7.47;4.15;;;;;;;;;;4967577;28;20368;-68
2022/09/25 11:24:28;;;;;;;6.60;4.38;;;;;;;;;;4967615;28;20436;-68
2022/09/25 11:27:00;;;;;;;8.07;4.45;;;;;;;;;;4969349;28;20029;-68
2022/09/25 11:29:31;;;;;;;5.78;4.10;;;;;;;;;;4968940;28;20448;-68
2022/09/25 11:32:03;;;;;;;6.85;4.55;;;;;;;;;;4968995;28;20498;-68
2022/09/25 11:34:55;;;;;;;7.53;4.05;;;;;;;;;;4969173;28;20452;-68
2022/09/25 11:37:30;;;;;;;8.13;4.00;;;;;;;;;;4966737;28;20472;-68
2022/09/25 11:43:05;;;;;;;5.35;3.63;;;;;;;;;;4968712;28;20411;-68
2022/09/25 11:45:58;;;;;;;6.28;3.95;;;;;;;;;;4968610;28;20344;-68
2022/09/25 11:48:47;;;;;;;7.18;3.90;;;;;;;;;;4967442;28;20491;-68
2022/09/25 11:51:33;;;;;;;;;;;;;;;;;;4967787;28;20416;-68
2022/09/25 11:54:35;;;;;;;5.82;3.83;;;;;;;;;;4967573;28;20405;-68
2022/09/25 11:57:27;;;;;;;5.93;3.50;;;;;;;;;;4915300;28;20081;-68
2022/09/25 12:00:11;;;;;;;5.78;3.67;;;;;;;;;;4968435;28;20325;-68
2022/09/25 12:02:39;;;;;;;6.07;3.53;;;;;;;;;;4968875;28;20375;-67
2022/09/25 12:05:49;;;;;;;6.38;3.75;;;;;;;;;;4968313;28;20938;-68
2022/09/25 12:08:36;;;;;;;7.80;4.03;;;;;;;;;;4966828;28;20415;-68
2022/09/25 12:11:13;;;;;;;9.25;3.55;;;;;;;;;;4968662;28;20469;-68
2022/09/25 12:14:02;;;;;;;6.95;3.80;;;;;;;;;;4968124;28;20456;-68
2022/09/25 12:16:56;;;;;;;5.80;3.33;;;;;;;;;;4967401;28;20424;-68
2022/09/25 12:19:50;;;;;;;6.70;3.60;;;;;;;;;;4968030;28;20432;-68
2022/09/25 12:22:35;;;;;;;4.97;3.22;;;;;;;;;;4968360;28;20514;-68
2022/09/25 12:25:18;;;;;;;4.45;3.05;;;;;;;;;;4968017;28;20456;-68
2022/09/25 12:28:05;;;;;;;4.57;3.03;;;;;;;;;;4968160;28;20440;-68
2022/09/25 12:30:59;;;;;;;4.95;3.45;;;;;;;;;;4967999;28;20087;-68
2022/09/25 12:33:34;;;;;;;6.20;3.50;;;;;;;;;;4966364;28;20330;-68
2022/09/25 12:36:19;;;;;;;5.10;3.47;;;;;;;;;;4966455;28;20425;-67
2022/09/25 12:39:30;;;;;;;7.97;3.45;;;;;;;;;;4966835;28;20464;-67
2022/09/25 12:42:08;;;;;;;7.22;3.28;;;;;;;;;;4965918;28;20045;-68
2022/09/25 12:44:45;;;;;;;4.93;3.20;;;;;;;;;;4966297;28;20510;-67
2022/09/25 12:47:32;;;;;;;4.60;2.92;;;;;;;;;;4967578;28;20367;-68
2022/09/25 12:50:08;;;;;;;6.20;3.60;;;;;;;;;;4968508;28;20440;-68
2022/09/25 12:52:56;;;;;;;5.07;3.35;;;;;;;;;;4949916;28;20408;-67
2022/09/25 12:55:44;;;;;;;4.30;3.30;;;;;;;;;;4966254;28;20398;-68
2022/09/25 12:58:27;;;;;;;5.13;3.50;;;;;;;;;;4967542;28;20115;-67
2022/09/25 13:01:02;;;;;;;8.25;3.50;;;;;;;;;;4967511;28;20436;-68
2022/09/25 13:03:55;;;;;;;5.38;3.25;;;;;;;;;;4967545;28;20102;-68
2022/09/25 13:06:37;;;;;;;4.65;3.00;;;;;;;;;;4967445;28;20352;-68
2022/09/25 13:09:29;;;;;;;7.95;3.70;;;;;;;;;;4966381;28;20360;-67
2022/09/25 13:12:18;;;;;;;6.53;3.00;;;;;;;;;;4965984;28;20532;-68
2022/09/25 13:14:52;;;;;;;4.97;3.42;;;;;;;;;;4966040;28;20432;-68
2022/09/25 13:17:17;;;;;;;5.43;3.40;;;;;;;;;;4966025;28;20387;-68
2022/09/25 13:19:43;;;;;;;6.88;3.88;;;;;;;;;;4967312;28;20030;-67
2022/09/25 13:22:26;;;;;;;7.75;3.92;;;;;;;;;;4965880;28;20436;-67
2022/09/25 13:25:04;;;;;;;5.22;3.05;;;;;;;;;;4967565;28;20317;-68
2022/09/25 13:27:41;;;;;;;5.45;3.17;;;;;;;;;;4968229;28;20352;-68
2022/09/25 13:30:27;;;;;;;4.80;3.05;;;;;;;;;;4965734;28;20342;-67
2022/09/25 13:32:58;;;;;;;11.23;7.53;;;;;;;;;;4966868;28;20432;-68
2022/09/25 13:35:24;;;;;;;4.95;3.33;;;;;;;;;;4965578;28;20444;-68
2022/09/25 13:37:51;;;;;;;9.07;3.58;;;;;;;;;;4948780;28;20538;-67
2022/09/25 13:43:22;;;;;;;12.90;2.90;;;;;;;;;;4967775;28;20520;-67
2022/09/25 13:46:13;;;;;;;8.23;3.88;;;;;;;;;;4964168;28;20112;-67
2022/09/25 13:48:39;;;;;;;7.93;3.10;;;;;;;;;;4965486;28;20546;-67
2022/09/25 13:51:17;;;;;;;5.80;3.17;;;;;;;;;;4966752;28;20474;-67
2022/09/25 13:54:08;;;;;;;11.25;4.07;;;;;;;;;;4965726;28;20022;-67
2022/09/25 13:56:39;;;;;;;13.95;3.90;;;;;;;;;;4959232;28;20531;-67
2022/09/25 13:59:14;;;;;;;11.23;3.58;;;;;;;;;;4967060;28;20487;-67
2022/09/25 14:01:45;;;;;;;11.60;2.72;;;;;;;;;;4968899;28;20413;-67
2022/09/25 14:04:14;;;;;;;6.35;3.63;;;;;;;;;;4970576;28;20396;-67
2022/09/25 14:06:44;;;;;;;7.28;3.25;;;;;;;;;;4970510;28;20528;-66
2022/09/25 14:09:18;;;;;;;5.85;2.78;;;;;;;;;;4970386;28;20459;-67
2022/09/25 14:12:06;;;;;;;8.60;3.20;;;;;;;;;;4968951;28;20471;-67
2022/09/25 14:14:38;;;;;;;13.20;3.08;;;;;;;;;;4969799;28;20541;-67
2022/09/25 14:17:03;;;;;;;8.60;3.13;;;;;;;;;;4970355;28;20498;-69
2022/09/25 14:19:34;;;;;;;9.18;3.72;;;;;;;;;;4970309;28;20411;-67
2022/09/25 14:22:02;;;;;;;15.82;4.55;;;;;;;;;;4968179;28;20388;-67
2022/09/25 14:24:29;;;;;;;13.80;3.85;;;;;;;;;;4967274;28;20017;-67
2022/09/25 14:27:00;;;;;;;7.22;3.65;;;;;;;;;;4969221;28;20531;-67
2022/09/25 14:29:38;;;;;;;45.15;6.13;;;;;;;;;;4969374;28;20472;-66
2022/09/25 14:32:51;;;;;;;26.63;6.47;;;;;;;;;;4970136;28;20380;-66
2022/09/25 14:35:46;;;;;;;40.55;6.63;;;;;;;;;;4956529;28;20440;-64
2022/09/25 14:38:23;;;;;;;30.27;6.10;;;;;;;;;;4930587;28;20369;-66
2022/09/25 14:41:10;;;;;;;36.70;5.60;;;;;;;;;;4949928;28;20113;-66
2022/09/25 14:43:46;;;;;;;38.38;5.93;;;;;;;;;;4949906;28;20033;-65
2022/09/25 14:46:19;;;;;;;35.85;6.15;;;;;;;;;;4948286;28;20484;-66
2022/09/25 14:48:49;;;;;;;18.63;5.45;;;;;;;;;;4947276;28;20587;-65
2022/09/25 14:51:22;;;;;;;17.95;6.00;;;;;;;;;;4948025;28;20495;-65
2022/09/25 14:53:56;;;;;;;35.42;7.28;;;;;;;;;;4947980;28;20527;-66
2022/09/25 14:56:21;;;;;;;26.20;5.88;;;;;;;;;;4948141;28;20342;-66
2022/09/25 14:58:53;;;;;;;23.92;5.32;;;;;;;;;;4949396;28;20400;-66
2022/09/25 15:01:26;;;;;;;24.33;5.15;;;;;;;;;;4948556;28;20042;-65
2022/09/25 15:03:53;;;;;;;19.02;5.63;;;;;;;;;;4950881;28;20452;-66
2022/09/25 15:06:27;;;;;;;26.85;6.97;;;;;;;;;;4949987;28;20379;-65
2022/09/25 15:08:53;;;;;;;18.42;5.45;;;;;;;;;;4948416;28;20064;-66
2022/09/25 15:11:20;;;;;;;21.95;5.68;;;;;;;;;;4948675;28;20037;-66
2022/09/25 15:13:45;;;;;;;21.33;5.38;;;;;;;;;;4949645;28;20429;-66
2022/09/25 15:19:20;;;;;;;25.00;5.15;;;;;;;;;;4948307;28;20526;-66
2022/09/25 15:21:46;;;;;;;16.77;5.40;;;;;;;;;;4949811;28;20344;-66
2022/09/25 15:24:18;;;;;;;17.05;5.90;;;;;;;;;;4948203;28;20349;-66
2022/09/25 15:27:05;;;;;;;19.95;4.60;;;;;;;;;;4948631;28;20052;-66
2022/09/25 15:29:35;;;;;;;15.38;4.63;;;;;;;;;;4950208;28;20455;-66
2022/09/25 15:32:00;;;;;;;17.13;4.40;;;;;;;;;;4947780;28;20049;-66
2022/09/25 15:34:28;;;;;;;14.25;4.60;;;;;;;;;;4949891;28;20433;-66
2022/09/25 15:37:06;;;;;;;15.03;4.47;;;;;;;;;;4951462;28;20095;-66